Time;durP1;ratioP1;P1;durP2;ratioP2;P2;SDS_P1;SDS_P2;PMS_P1;PMS_P2;Temp;Humidity;BMP_temperature;BMP_pressure;BME280_temperature;BME280_humidity;BME280_pressure;Samples;Min_cycle;Max_cycle;Signal;HPM_P1;HPM_P2
2022/01/11 00:00:57;;;;;;;18.45;9.90;;;3.10;87.20;;;;;;5031569;28;20051;-44
2022/01/11 00:06:48;;;;;;;18.60;10.20;;;3.00;87.00;;;;;;5031689;28;20032;-45
2022/01/11 00:17:08;;;;;;;22.67;9.93;;;3.10;87.10;;;;;;5030934;28;20083;-45
2022/01/11 00:28:49;;;;;;;32.88;11.05;;;3.10;87.00;;;;;;4991759;28;20030;-45
2022/01/11 00:44:04;;;;;;;31.30;11.00;;;3.00;86.90;;;;;;4991991;28;20129;-44
2022/01/11 00:49:53;;;;;;;27.60;10.00;;;3.00;87.20;;;;;;4974270;28;20042;-45
2022/01/11 01:05:35;;;;;;;26.00;10.43;;;2.90;87.20;;;;;;4993474;28;20041;-41
2022/01/11 01:11:22;;;;;;;19.30;10.05;;;2.90;87.30;;;;;;4993501;28;20462;-44
2022/01/11 01:17:10;;;;;;;23.63;10.32;;;2.90;87.30;;;;;;4993394;28;20041;-44
2022/01/11 01:22:57;;;;;;;30.23;10.30;;;3.00;87.20;;;;;;4993539;28;20085;-42
2022/01/11 01:28:47;;;;;;;19.00;10.30;;;3.00;87.10;;;;;;4995789;28;20402;-43
2022/01/11 01:34:36;;;;;;;29.67;10.90;;;3.00;87.10;;;;;;4997349;28;20093;-44
2022/01/11 01:40:23;;;;;;;21.00;9.98;;;3.10;87.10;;;;;;4997382;28;20057;-44
2022/01/11 01:46:11;;;;;;;20.80;9.77;;;3.10;87.00;;;;;;4997237;28;20081;-43
2022/01/11 01:51:59;;;;;;;16.60;9.88;;;3.00;86.80;;;;;;4997166;28;20107;-44
2022/01/11 01:57:46;;;;;;;24.20;11.10;;;3.00;87.00;;;;;;4996996;28;20033;-42
2022/01/11 02:06:56;;;;;;;20.63;9.77;;;2.90;86.80;;;;;;4996906;28;20038;-43
2022/01/11 02:12:43;;;;;;;17.20;9.95;;;2.90;86.80;;;;;;4996733;28;20032;-43
2022/01/11 02:18:31;;;;;;;21.95;10.30;;;3.00;86.90;;;;;;4996622;28;20374;-43
2022/01/11 02:24:19;;;;;;;16.35;9.63;;;3.00;86.90;;;;;;4996426;28;20548;-44
2022/01/11 02:30:07;;;;;;;25.77;11.32;;;2.90;86.80;;;;;;5015877;28;20052;-45
2022/01/11 02:35:55;;;;;;;23.23;10.95;;;2.90;87.00;;;;;;5015783;28;20405;-44
2022/01/11 02:48:28;;;;;;;19.23;9.98;;;2.80;86.90;;;;;;5015701;28;20415;-43
2022/01/11 02:54:15;;;;;;;20.85;10.65;;;2.80;86.90;;;;;;5015604;28;20080;-43
2022/01/11 03:00:09;;;;;;;18.77;9.88;;;2.70;87.10;;;;;;5015493;28;20128;-44
2022/01/11 03:09:19;;;;;;;23.63;11.50;;;2.70;87.00;;;;;;5015249;28;20053;-44
2022/01/11 03:15:08;;;;;;;22.92;12.20;;;2.80;87.00;;;;;;5015176;28;20069;-44
2022/01/11 03:20:55;;;;;;;22.08;12.10;;;2.80;87.00;;;;;;5015063;28;20478;-44
2022/01/11 03:26:43;;;;;;;23.23;11.00;;;2.90;87.00;;;;;;5014891;28;20029;-41
2022/01/11 03:35:53;;;;;;;23.80;11.77;;;2.90;87.00;;;;;;5014831;28;20040;-44
2022/01/11 03:41:40;;;;;;;24.45;12.65;;;2.90;86.90;;;;;;5014737;28;20123;-43
2022/01/11 03:47:28;;;;;;;23.17;11.75;;;2.90;86.70;;;;;;5014603;28;20076;-40
2022/01/11 04:03:27;;;;;;;17.77;9.80;;;2.70;86.80;;;;;;5012323;28;20618;-43
2022/01/11 04:12:36;;;;;;;21.30;11.23;;;2.60;87.00;;;;;;5012076;28;20032;-43
2022/01/11 04:18:23;;;;;;;20.02;11.70;;;2.50;87.00;;;;;;5011986;28;20029;-43
2022/01/11 04:24:12;;;;;;;17.02;10.43;;;2.70;87.10;;;;;;5011907;28;20079;-41
2022/01/11 04:29:59;;;;;;;18.05;10.75;;;2.60;87.00;;;;;;5013618;28;20044;-44
2022/01/11 04:35:49;;;;;;;19.48;11.05;;;2.60;87.00;;;;;;5013534;28;20029;-43
2022/01/11 04:41:36;;;;;;;21.00;12.15;;;2.60;87.00;;;;;;5013437;28;20448;-44
2022/01/11 04:47:23;;;;;;;23.70;13.13;;;2.60;87.10;;;;;;5013668;28;20354;-44
2022/01/11 04:53:11;;;;;;;22.25;12.63;;;2.60;87.10;;;;;;5013572;28;20394;-43
2022/01/11 04:58:59;;;;;;;23.40;13.75;;;2.60;87.10;;;;;;5013410;28;20126;-44
2022/01/11 05:04:47;;;;;;;21.90;13.18;;;2.60;87.20;;;;;;5013119;28;20052;-42
2022/01/11 05:13:56;;;;;;;23.80;13.85;;;2.60;87.10;;;;;;5013332;28;20091;-44
2022/01/11 05:19:44;;;;;;;21.13;12.45;;;2.70;87.20;;;;;;5013164;28;20037;-43
2022/01/11 05:25:32;;;;;;;21.40;12.43;;;2.70;87.20;;;;;;5012937;28;20048;-43
2022/01/11 05:31:19;;;;;;;22.17;12.50;;;2.70;87.20;;;;;;5013497;28;20048;-42
2022/01/11 05:37:07;;;;;;;23.15;12.98;;;2.80;87.10;;;;;;5013121;28;20048;-44
2022/01/11 05:53:07;;;;;;;20.08;12.20;;;2.70;87.00;;;;;;5010974;28;20049;-44
2022/01/11 05:58:54;;;;;;;22.25;12.95;;;2.70;87.10;;;;;;5010877;28;20036;-42
2022/01/11 06:04:41;;;;;;;18.80;11.73;;;2.70;87.10;;;;;;5010730;28;20033;-40
2022/01/11 06:13:51;;;;;;;18.60;11.15;;;2.70;87.00;;;;;;5010506;28;20033;-42
2022/01/11 06:19:38;;;;;;;16.67;9.95;;;2.70;87.00;;;;;;5016046;28;20087;-43
2022/01/11 06:25:26;;;;;;;19.67;11.32;;;2.60;87.00;;;;;;5015806;28;20212;-43
2022/01/11 06:31:14;;;;;;;19.77;12.15;;;2.60;87.10;;;;;;5015632;28;20096;-44
2022/01/11 06:33:40;;;;;;;18.33;11.18;;;2.60;87.00;;;;;;5013585;28;20046;-48
2022/01/11 06:36:10;;;;;;;17.88;12.05;;;2.60;87.00;;;;;;5015885;28;20088;-44
2022/01/11 06:38:40;;;;;;;20.67;12.60;;;2.70;87.10;;;;;;5015775;28;20022;-43
2022/01/11 06:41:07;;;;;;;21.08;12.85;;;2.70;87.10;;;;;;5015511;28;20087;-45
2022/01/11 06:43:32;;;;;;;20.90;12.32;;;2.70;87.00;;;;;;5030644;28;20034;-43
2022/01/11 06:45:58;;;;;;;20.38;12.38;;;2.60;87.00;;;;;;5015369;28;20366;-44
2022/01/11 06:48:23;;;;;;;20.58;12.57;;;2.70;87.10;;;;;;5015356;28;20030;-42
2022/01/11 06:50:49;;;;;;;21.60;12.40;;;2.70;87.10;;;;;;5015242;28;20037;-44
2022/01/11 06:53:15;;;;;;;22.58;12.70;;;2.60;87.10;;;;;;5015254;28;20033;-44
2022/01/11 06:55:40;;;;;;;21.05;12.38;;;2.70;87.00;;;;;;5015375;28;20026;-44
2022/01/11 06:58:07;;;;;;;23.20;12.93;;;2.70;87.00;;;;;;5015189;28;20075;-44
2022/01/11 07:00:33;;;;;;;24.08;13.50;;;2.70;87.00;;;;;;5015371;28;20485;-43
2022/01/11 07:02:58;;;;;;;19.85;12.02;;;2.80;87.00;;;;;;5015104;28;20140;-43
2022/01/11 07:05:24;;;;;;;23.80;13.15;;;2.80;86.90;;;;;;5015306;28;20500;-44
2022/01/11 07:07:50;;;;;;;22.30;12.52;;;2.70;86.80;;;;;;5014994;28;20092;-44
2022/01/11 07:10:16;;;;;;;24.33;13.48;;;2.70;86.80;;;;;;5015125;28;20058;-43
2022/01/11 07:12:42;;;;;;;21.38;12.85;;;2.80;87.00;;;;;;5014961;28;20433;-44
2022/01/11 07:15:08;;;;;;;22.88;13.68;;;2.80;86.90;;;;;;5015053;28;20021;-44
2022/01/11 07:17:34;;;;;;;24.08;13.73;;;2.80;86.90;;;;;;5014992;28;20522;-43
2022/01/11 07:20:00;;;;;;;24.25;13.88;;;2.80;86.80;;;;;;5014837;28;20105;-43
2022/01/11 07:22:26;;;;;;;25.92;15.10;;;2.80;86.80;;;;;;5014697;28;20026;-43
2022/01/11 07:24:51;;;;;;;27.98;15.57;;;2.80;86.60;;;;;;5014930;28;20038;-43
2022/01/11 07:27:17;;;;;;;27.73;16.05;;;2.70;86.70;;;;;;5014171;28;20106;-44
2022/01/11 07:29:43;;;;;;;26.55;15.00;;;2.70;86.80;;;;;;5014714;28;20030;-44
2022/01/11 07:32:08;;;;;;;27.23;14.80;;;2.70;86.80;;;;;;5014592;28;20022;-44
2022/01/11 07:34:34;;;;;;;27.45;14.38;;;2.70;86.90;;;;;;5014217;28;20068;-44
2022/01/11 07:37:00;;;;;;;26.35;15.27;;;2.70;86.90;;;;;;5014421;28;20065;-43
2022/01/11 07:39:25;;;;;;;26.15;15.13;;;2.70;86.90;;;;;;5014333;28;20030;-43
2022/01/11 07:41:51;;;;;;;24.95;14.60;;;2.70;87.00;;;;;;5014253;28;20028;-43
2022/01/11 07:44:17;;;;;;;23.95;14.60;;;2.70;87.00;;;;;;5014432;28;20496;-42
2022/01/11 07:46:44;;;;;;;28.73;15.27;;;2.70;86.90;;;;;;5013333;28;20026;-44
2022/01/11 07:49:10;;;;;;;29.40;16.60;;;2.70;86.90;;;;;;5014295;28;20037;-44
2022/01/11 07:51:38;;;;;;;70.95;15.95;;;2.70;86.80;;;;;;5013970;28;20022;-44
2022/01/11 07:54:04;;;;;;;26.83;14.50;;;2.70;86.80;;;;;;5013889;28;20022;-44
2022/01/11 07:56:30;;;;;;;26.75;15.32;;;2.70;86.90;;;;;;5013736;28;20029;-44
2022/01/11 07:58:55;;;;;;;25.92;14.93;;;2.60;86.80;;;;;;5013970;28;20447;-42
2022/01/11 08:01:21;;;;;;;31.05;15.15;;;2.70;87.00;;;;;;5014027;28;20037;-42
2022/01/11 08:03:47;;;;;;;24.67;13.75;;;2.70;87.00;;;;;;5014055;28;20481;-44
2022/01/11 08:06:14;;;;;;;29.70;16.15;;;2.70;86.90;;;;;;5014092;28;20034;-42
2022/01/11 08:08:39;;;;;;;26.85;14.60;;;2.70;86.90;;;;;;5013885;28;20032;-41
2022/01/11 08:11:06;;;;;;;29.60;14.52;;;2.70;86.90;;;;;;5014033;28;20113;-41
2022/01/11 08:13:32;;;;;;;27.00;14.05;;;2.70;87.00;;;;;;5013493;28;20029;-46
2022/01/11 08:15:57;;;;;;;21.13;12.68;;;2.70;86.90;;;;;;5028833;28;20382;-44
2022/01/11 08:18:23;;;;;;;21.25;13.07;;;2.60;86.80;;;;;;5013630;28;20022;-44
2022/01/11 08:20:49;;;;;;;19.20;11.70;;;2.60;87.00;;;;;;5013719;28;20474;-43
2022/01/11 08:23:15;;;;;;;19.48;12.05;;;2.60;87.00;;;;;;5013918;28;20087;-43
2022/01/11 08:25:41;;;;;;;18.55;12.38;;;2.70;87.00;;;;;;5013639;28;20096;-41
2022/01/11 08:28:07;;;;;;;18.38;11.25;;;2.70;87.60;;;;;;5013648;28;20030;-42
2022/01/11 08:30:34;;;;;;;16.52;11.13;;;2.70;86.90;;;;;;5013436;28;20026;-43
2022/01/11 08:33:00;;;;;;;19.27;10.85;;;2.80;86.90;;;;;;5013443;28;20074;-39
2022/01/11 08:35:30;;;;;;;18.80;11.45;;;2.90;86.80;;;;;;5013561;28;20022;-44
2022/01/11 08:37:55;;;;;;;16.58;9.57;;;2.90;86.70;;;;;;5012934;28;20017;-44
2022/01/11 08:40:22;;;;;;;16.95;11.02;;;2.90;86.60;;;;;;5013452;28;20453;-44
2022/01/11 08:42:47;;;;;;;17.25;10.35;;;2.90;86.50;;;;;;5012443;28;20025;-44
2022/01/11 08:45:13;;;;;;;17.13;10.48;;;3.00;86.60;;;;;;5012145;28;20056;-41
2022/01/11 08:47:39;;;;;;;17.45;11.00;;;3.00;86.50;;;;;;5013598;28;20453;-43
2022/01/11 08:50:08;;;;;;;16.05;10.35;;;3.10;86.50;;;;;;5013245;28;20053;-43
2022/01/11 08:52:34;;;;;;;14.52;9.48;;;3.10;86.40;;;;;;5013424;28;20030;-41
2022/01/11 08:55:00;;;;;;;14.85;9.68;;;3.20;86.30;;;;;;5013227;28;20048;-43
2022/01/11 08:57:26;;;;;;;17.25;11.48;;;3.20;86.10;;;;;;5013144;28;20033;-43
2022/01/11 08:59:51;;;;;;;17.90;11.23;;;3.10;86.00;;;;;;5013122;28;20029;-44
2022/01/11 09:02:20;;;;;;;18.73;11.23;;;3.10;86.10;;;;;;5013080;28;20122;-41
2022/01/11 09:04:47;;;;;;;16.92;10.77;;;3.10;86.10;;;;;;5013381;28;20080;-42
2022/01/11 09:07:13;;;;;;;16.67;10.13;;;3.20;86.20;;;;;;5013106;28;20034;-39
2022/01/11 09:09:39;;;;;;;14.63;9.32;;;3.20;86.20;;;;;;5012874;28;20037;-40
2022/01/11 09:12:08;;;;;;;15.27;9.32;;;3.20;86.00;;;;;;5012956;28;20477;-43
2022/01/11 09:14:34;;;;;;;17.50;10.77;;;3.30;86.00;;;;;;5013007;28;20026;-43
2022/01/11 09:17:02;;;;;;;16.50;10.43;;;3.30;85.90;;;;;;5012929;28;20033;-43
2022/01/11 09:19:29;;;;;;;16.33;10.38;;;3.30;85.90;;;;;;5013250;28;20022;-42
2022/01/11 09:21:55;;;;;;;15.45;9.23;;;3.30;85.90;;;;;;5013074;28;20030;-45
2022/01/11 09:24:21;;;;;;;17.65;9.98;;;3.30;85.70;;;;;;5012944;28;20076;-38
2022/01/11 09:26:48;;;;;;;16.20;10.23;;;3.30;85.70;;;;;;5012830;28;20041;-44
2022/01/11 09:29:15;;;;;;;12.93;9.20;;;3.40;85.70;;;;;;5012963;28;20032;-44
2022/01/11 09:31:41;;;;;;;16.33;9.45;;;3.50;85.70;;;;;;5012766;28;20030;-42
2022/01/11 09:34:06;;;;;;;17.40;9.35;;;3.50;85.50;;;;;;5012792;28;20045;-43
2022/01/11 09:36:32;;;;;;;17.40;10.50;;;3.50;85.40;;;;;;5012859;28;20030;-38
2022/01/11 09:38:58;;;;;;;15.77;9.40;;;3.60;85.40;;;;;;5012841;28;20116;-42
2022/01/11 09:41:24;;;;;;;15.55;9.65;;;3.60;85.40;;;;;;5012750;28;20494;-43
2022/01/11 09:43:49;;;;;;;16.33;9.27;;;3.60;85.40;;;;;;5012965;28;20038;-44
2022/01/11 09:46:15;;;;;;;14.45;9.10;;;3.70;85.40;;;;;;5012772;28;20033;-42
2022/01/11 09:48:45;;;;;;;16.77;10.20;;;3.80;85.20;;;;;;5013656;28;20101;-43
2022/01/11 09:51:11;;;;;;;16.38;10.15;;;3.80;85.10;;;;;;5016409;28;20038;-46
2022/01/11 09:53:37;;;;;;;17.13;10.40;;;3.70;85.10;;;;;;5016472;28;20022;-44
2022/01/11 09:56:07;;;;;;;15.57;9.75;;;3.80;85.20;;;;;;5016474;28;20026;-42
2022/01/11 09:58:34;;;;;;;15.90;10.00;;;3.70;85.10;;;;;;5016361;28;20041;-44
2022/01/11 10:01:00;;;;;;;14.95;9.85;;;3.80;85.10;;;;;;5016169;28;20057;-43
2022/01/11 10:03:26;;;;;;;15.40;8.70;;;3.80;85.10;;;;;;5016179;28;20069;-40
2022/01/11 10:05:51;;;;;;;17.67;10.02;;;3.80;85.00;;;;;;5015943;28;20026;-43
2022/01/11 10:08:27;;;;;;;16.90;10.00;;;3.80;85.50;;;;;;5016028;28;20030;-43
2022/01/11 10:10:54;;;;;;;15.93;10.02;;;3.80;85.00;;;;;;5016073;28;20112;-43
2022/01/11 10:13:31;;;;;;;17.02;9.57;;;3.80;85.10;;;;;;5016091;28;20539;-41
2022/01/11 10:15:57;;;;;;;17.35;10.35;;;3.80;85.10;;;;;;5015733;28;20028;-40
2022/01/11 10:18:37;;;;;;;19.75;11.10;;;3.80;85.00;;;;;;5015861;28;20097;-43
2022/01/11 10:21:54;;;;;;;17.50;9.90;;;3.80;85.00;;;;;;5015780;28;20082;-40
2022/01/11 10:24:44;;;;;;;16.75;9.55;;;3.90;85.10;;;;;;5003338;28;20102;-42
2022/01/11 10:27:15;;;;;;;20.50;11.15;;;3.90;85.00;;;;;;5015985;28;20021;-40
2022/01/11 10:29:50;;;;;;;18.45;10.20;;;3.90;85.00;;;;;;5015814;28;20470;-43
2022/01/11 10:32:36;;;;;;;16.40;10.32;;;3.90;85.10;;;;;;5015475;28;20029;-43
2022/01/11 10:35:11;;;;;;;19.95;11.23;;;3.90;84.90;;;;;;5015453;28;20124;-42
2022/01/11 10:37:42;;;;;;;15.13;9.35;;;4.00;84.90;;;;;;5015713;28;20049;-41
2022/01/11 10:40:23;;;;;;;15.85;9.73;;;4.00;85.00;;;;;;5015823;28;20116;-39
2022/01/11 10:42:58;;;;;;;20.70;11.27;;;4.00;85.10;;;;;;5015375;28;20085;-42
2022/01/11 10:45:25;;;;;;;16.35;9.70;;;4.10;85.00;;;;;;5015422;28;20026;-43
2022/01/11 10:47:53;;;;;;;18.63;9.63;;;4.10;85.00;;;;;;5015448;28;20497;-42
2022/01/11 10:50:28;;;;;;;18.33;9.48;;;4.10;85.00;;;;;;5015223;28;20095;-39
2022/01/11 10:52:59;;;;;;;18.38;10.50;;;4.10;84.90;;;;;;5015588;28;20109;-40
2022/01/11 10:55:28;;;;;;;17.45;9.55;;;4.20;85.00;;;;;;5015178;28;20049;-44
2022/01/11 10:58:02;;;;;;;17.60;9.57;;;4.20;84.90;;;;;;5015481;28;20019;-43
2022/01/11 11:00:41;;;;;;;18.52;9.88;;;4.20;84.90;;;;;;5014321;28;20637;-42
2022/01/11 11:03:16;;;;;;;16.02;9.20;;;4.30;84.90;;;;;;5015136;28;20493;-39
2022/01/11 11:05:51;;;;;;;19.63;10.70;;;4.30;84.80;;;;;;5015040;28;20030;-40
2022/01/11 11:08:33;;;;;;;17.35;10.10;;;4.30;84.80;;;;;;5015212;28;20576;-41
2022/01/11 11:11:14;;;;;;;21.55;10.93;;;4.40;84.80;;;;;;5014868;28;20026;-44
2022/01/11 11:13:42;;;;;;;16.35;9.10;;;4.40;84.70;;;;;;5013883;28;20026;-43
2022/01/11 11:16:22;;;;;;;16.45;9.32;;;4.50;84.70;;;;;;5014873;28;20025;-42
2022/01/11 11:18:55;;;;;;;16.98;9.73;;;4.50;84.70;;;;;;5014797;28;20030;-41
2022/01/11 11:21:37;;;;;;;17.83;10.40;;;4.50;84.60;;;;;;5014774;28;20091;-43
2022/01/11 11:24:07;;;;;;;17.10;9.25;;;4.50;84.60;;;;;;5014906;28;20768;-43
2022/01/11 11:26:37;;;;;;;15.65;9.82;;;4.50;84.70;;;;;;5014620;28;20053;-46
2022/01/11 11:29:03;;;;;;;18.33;9.95;;;4.50;84.70;;;;;;5014905;28;20030;-41
2022/01/11 11:31:30;;;;;;;18.40;9.80;;;4.60;85.30;;;;;;5014251;28;20041;-43
2022/01/11 11:33:55;;;;;;;16.80;9.45;;;4.60;84.60;;;;;;5029445;28;20041;-42
2022/01/11 11:36:22;;;;;;;17.27;9.70;;;4.70;84.70;;;;;;5014288;28;20026;-46
2022/01/11 11:39:13;;;;;;;17.38;9.65;;;4.70;84.60;;;;;;5014352;28;20334;-42
2022/01/11 11:41:41;;;;;;;17.65;10.10;;;4.80;84.50;;;;;;5014217;28;20481;-42
2022/01/11 11:44:10;;;;;;;19.45;10.45;;;4.80;84.60;;;;;;5014399;28;20488;-41
2022/01/11 11:46:56;;;;;;;18.63;10.07;;;4.90;84.50;;;;;;5014328;28;20018;-42
2022/01/11 11:49:45;;;;;;;17.98;9.90;;;4.90;84.30;;;;;;5013509;28;20018;-43
2022/01/11 11:52:21;;;;;;;19.85;10.55;;;5.00;84.20;;;;;;5014256;28;20434;-43
2022/01/11 11:54:51;;;;;;;17.95;9.65;;;5.00;84.10;;;;;;5014174;28;20087;-43
2022/01/11 11:57:18;;;;;;;16.30;9.15;;;5.00;84.10;;;;;;5014078;28;20489;-40
2022/01/11 11:59:56;;;;;;;17.90;9.15;;;5.10;84.00;;;;;;5014376;28;20450;-45
2022/01/11 12:02:42;;;;;;;16.38;10.00;;;5.10;83.90;;;;;;5014265;28;20553;-41
2022/01/11 12:05:15;;;;;;;16.48;8.95;;;5.20;83.90;;;;;;5013927;28;20026;-43
2022/01/11 12:07:46;;;;;;;16.92;9.82;;;5.20;83.80;;;;;;5014199;28;20070;-44
2022/01/11 12:10:19;;;;;;;15.35;8.98;;;5.20;83.50;;;;;;5014124;28;20030;-44
2022/01/11 12:12:54;;;;;;;15.40;9.10;;;5.20;83.50;;;;;;5013832;28;20092;-42
2022/01/11 12:15:33;;;;;;;16.30;9.07;;;5.20;83.50;;;;;;5014051;28;20406;-45
2022/01/11 12:18:11;;;;;;;16.77;9.00;;;5.20;83.30;;;;;;5014001;28;20504;-43
2022/01/11 12:20:43;;;;;;;16.33;9.10;;;5.20;83.10;;;;;;5013620;28;20033;-44
2022/01/11 12:23:13;;;;;;;16.20;8.80;;;5.20;83.10;;;;;;5013491;28;20044;-42
2022/01/11 12:25:43;;;;;;;15.23;8.43;;;5.20;83.10;;;;;;5013959;28;20474;-45
2022/01/11 12:28:21;;;;;;;20.65;10.60;;;5.20;83.10;;;;;;5013644;28;20033;-44
2022/01/11 12:30:47;;;;;;;17.15;9.82;;;5.20;83.00;;;;;;5013476;28;20558;-44
2022/01/11 12:33:18;;;;;;;16.20;9.30;;;5.20;82.90;;;;;;5013281;28;20038;-42
2022/01/11 12:36:00;;;;;;;13.25;8.65;;;5.20;82.90;;;;;;5013574;28;20497;-37
2022/01/11 12:38:29;;;;;;;13.60;8.82;;;5.20;82.90;;;;;;5013723;28;20037;-37
2022/01/11 12:40:55;;;;;;;14.93;8.88;;;5.20;82.90;;;;;;5013433;28;20099;-37
2022/01/11 12:43:39;;;;;;;14.80;8.18;;;5.20;83.00;;;;;;5013682;28;20474;-36
2022/01/11 12:46:10;;;;;;;13.63;8.00;;;5.20;83.00;;;;;;5013774;28;20030;-37
2022/01/11 12:48:46;;;;;;;16.85;9.93;;;5.20;82.90;;;;;;5013352;28;20030;-36
2022/01/11 12:51:23;;;;;;;14.40;7.85;;;5.20;83.50;;;;;;5013300;28;20513;-39
2022/01/11 12:53:51;;;;;;;14.50;8.50;;;5.20;82.90;;;;;;5013614;28;20474;-37
2022/01/11 12:56:18;;;;;;;17.15;9.30;;;5.20;82.90;;;;;;5011863;28;20033;-36
2022/01/11 12:58:47;;;;;;;13.93;8.77;;;5.20;82.80;;;;;;5013273;28;20481;-37
2022/01/11 13:01:17;;;;;;;13.10;8.18;;;5.20;82.80;;;;;;5013415;28;20026;-36
2022/01/11 13:03:53;;;;;;;16.48;8.93;;;5.20;82.70;;;;;;5013346;28;20421;-37
2022/01/11 13:06:18;;;;;;;13.60;8.38;;;5.30;82.70;;;;;;5013282;28;20030;-37
2022/01/11 13:08:46;;;;;;;14.10;8.35;;;5.30;82.70;;;;;;5013396;28;20032;-37
2022/01/11 13:11:19;;;;;;;11.55;7.82;;;5.30;82.70;;;;;;5013354;28;20383;-36
2022/01/11 13:13:57;;;;;;;14.07;8.00;;;5.30;82.70;;;;;;5013433;28;20585;-37
2022/01/11 13:16:24;;;;;;;15.13;8.82;;;5.30;82.70;;;;;;5013310;28;20496;-37
2022/01/11 13:18:50;;;;;;;13.35;8.30;;;5.40;82.60;;;;;;5012984;28;20034;-37
2022/01/11 13:21:20;;;;;;;14.30;8.23;;;5.40;82.60;;;;;;5012935;28;20037;-37
2022/01/11 13:23:59;;;;;;;14.55;9.20;;;5.40;82.60;;;;;;5014206;28;20585;-34
2022/01/11 13:26:26;;;;;;;16.67;9.15;;;5.40;82.60;;;;;;5017197;28;20505;-37
2022/01/11 13:28:57;;;;;;;14.95;8.55;;;5.50;82.60;;;;;;5016926;28;20394;-36
2022/01/11 13:31:36;;;;;;;14.50;9.07;;;5.50;82.50;;;;;;5016971;28;20477;-36
2022/01/11 13:34:13;;;;;;;14.40;8.40;;;5.50;82.40;;;;;;5016738;28;20046;-38
2022/01/11 13:36:44;;;;;;;14.73;8.57;;;5.50;82.30;;;;;;5032093;28;20053;-36
2022/01/11 13:39:21;;;;;;;14.07;8.00;;;5.50;82.20;;;;;;5016775;28;20018;-37
2022/01/11 13:41:49;;;;;;;17.83;9.00;;;5.50;82.20;;;;;;5015648;28;20033;-37
2022/01/11 13:44:16;;;;;;;15.63;8.93;;;5.60;82.30;;;;;;5016917;28;20017;-35
2022/01/11 13:46:43;;;;;;;16.58;9.38;;;5.60;82.30;;;;;;5016567;28;20457;-36
2022/01/11 13:49:25;;;;;;;14.80;8.48;;;5.60;82.30;;;;;;5016850;28;20022;-34
2022/01/11 13:51:57;;;;;;;13.75;8.35;;;5.70;82.40;;;;;;5016499;28;20041;-35
2022/01/11 13:54:39;;;;;;;14.00;7.90;;;5.80;82.30;;;;;;5016747;28;20044;-35
2022/01/11 13:57:08;;;;;;;13.95;8.52;;;5.90;82.20;;;;;;5016456;28;20096;-35
2022/01/11 13:59:34;;;;;;;13.10;8.45;;;6.10;82.10;;;;;;5031391;28;20404;-35
2022/01/11 14:02:13;;;;;;;15.43;8.32;;;6.10;81.90;;;;;;5016463;28;20433;-33
2022/01/11 14:04:49;;;;;;;15.07;8.82;;;6.20;81.80;;;;;;5016503;28;20034;-28
2022/01/11 14:07:18;;;;;;;14.98;9.38;;;6.30;81.60;;;;;;5015221;28;20049;-31
2022/01/11 14:09:52;;;;;;;15.90;9.00;;;6.40;81.50;;;;;;5016029;28;20037;-29
2022/01/11 14:12:24;;;;;;;15.00;9.30;;;6.50;81.40;;;;;;5016154;28;20124;-29
2022/01/11 14:15:01;;;;;;;14.85;9.02;;;6.50;81.30;;;;;;5015939;28;20025;-30
2022/01/11 14:17:30;;;;;;;15.43;8.57;;;6.60;81.10;;;;;;5016003;28;20105;-33
2022/01/11 14:20:05;;;;;;;13.80;8.88;;;6.60;81.00;;;;;;5016296;28;20061;-32
2022/01/11 14:22:45;;;;;;;16.23;9.15;;;6.70;80.90;;;;;;5016005;28;20033;-30
2022/01/11 14:25:27;;;;;;;13.48;9.13;;;6.70;80.80;;;;;;5015878;28;20029;-30
2022/01/11 14:28:30;;;;;;;15.52;9.38;;;6.60;80.80;;;;;;5016112;28;20040;-31
2022/01/11 14:31:02;;;;;;;15.45;8.75;;;6.50;80.80;;;;;;4955168;29;20156;-29
2022/01/11 14:33:35;;;;;;;13.85;8.85;;;6.40;80.90;;;;;;5006179;28;20045;-32
2022/01/11 14:36:03;;;;;;;12.68;8.50;;;6.40;81.00;;;;;;5014452;28;20109;-30
2022/01/11 14:38:44;;;;;;;14.30;9.05;;;6.40;81.00;;;;;;5014190;28;20026;-38
2022/01/11 14:41:18;;;;;;;13.60;8.63;;;6.40;81.10;;;;;;5015580;28;20061;-32
2022/01/11 14:43:55;;;;;;;14.60;9.38;;;6.40;81.00;;;;;;5015488;28;20022;-32
2022/01/11 14:46:20;;;;;;;17.05;9.20;;;6.40;81.10;;;;;;5015507;28;20068;-31
2022/01/11 14:48:46;;;;;;;15.98;9.23;;;6.40;81.10;;;;;;5015327;28;20100;-33
2022/01/11 14:51:16;;;;;;;15.13;9.52;;;6.40;81.20;;;;;;5015575;28;20037;-29
2022/01/11 14:53:45;;;;;;;15.93;9.15;;;6.40;81.10;;;;;;5015535;28;20496;-29
2022/01/11 14:56:13;;;;;;;16.08;9.32;;;6.40;81.00;;;;;;5015307;28;20382;-31
2022/01/11 14:58:43;;;;;;;13.63;8.70;;;6.30;81.00;;;;;;5015394;28;20030;-30
2022/01/11 15:01:13;;;;;;;17.73;11.00;;;6.20;81.00;;;;;;5015276;28;20386;-28
2022/01/11 15:03:42;;;;;;;15.30;9.50;;;6.20;81.10;;;;;;5015037;28;20052;-30
2022/01/11 15:06:20;;;;;;;16.25;10.18;;;6.00;81.30;;;;;;5015125;28;20076;-29
2022/01/11 15:08:55;;;;;;;16.17;9.20;;;6.00;81.40;;;;;;5015249;28;20058;-29
2022/01/11 15:11:26;;;;;;;15.23;8.88;;;6.00;81.60;;;;;;5014931;28;20037;-30
2022/01/11 15:13:57;;;;;;;14.90;9.75;;;5.90;81.70;;;;;;5014944;28;20105;-30
2022/01/11 15:16:27;;;;;;;16.45;8.93;;;5.90;81.70;;;;;;5014898;28;20448;-30
2022/01/11 15:18:54;;;;;;;13.82;9.13;;;5.90;81.70;;;;;;5014861;28;20022;-30
2022/01/11 15:21:21;;;;;;;14.68;9.25;;;5.80;81.80;;;;;;5014747;28;20030;-30
2022/01/11 15:23:48;;;;;;;17.25;9.23;;;5.80;81.80;;;;;;5015002;28;20367;-30
2022/01/11 15:26:27;;;;;;;13.57;8.32;;;5.80;81.80;;;;;;5014670;28;20442;-30
2022/01/11 15:29:00;;;;;;;13.02;8.15;;;5.80;82.00;;;;;;5014678;28;20026;-30
2022/01/11 15:31:26;;;;;;;15.10;8.45;;;5.70;82.00;;;;;;5014514;28;20501;-29
2022/01/11 15:33:53;;;;;;;14.13;9.15;;;5.70;82.00;;;;;;5014473;28;20133;-29
2022/01/11 15:36:19;;;;;;;15.63;9.43;;;5.70;82.00;;;;;;5014489;28;20026;-32
2022/01/11 15:38:45;;;;;;;16.75;9.57;;;5.70;82.10;;;;;;5014627;28;20080;-34
2022/01/11 15:41:12;;;;;;;13.98;9.32;;;5.60;82.10;;;;;;5014385;28;20030;-33
2022/01/11 15:43:39;;;;;;;18.42;10.15;;;5.60;82.10;;;;;;5014613;28;20022;-30
2022/01/11 15:46:05;;;;;;;16.13;9.85;;;5.60;82.20;;;;;;5014133;28;20025;-29
2022/01/11 15:48:31;;;;;;;17.50;10.18;;;5.60;82.20;;;;;;5014160;28;20030;-28
2022/01/11 15:50:57;;;;;;;16.00;10.27;;;5.60;82.20;;;;;;5014145;28;20042;-34
2022/01/11 15:53:24;;;;;;;18.63;10.30;;;5.60;82.20;;;;;;5014173;28;20414;-32
2022/01/11 15:55:54;;;;;;;17.85;10.20;;;5.60;82.30;;;;;;5014098;28;20508;-33
2022/01/11 15:58:20;;;;;;;18.90;9.98;;;5.60;82.30;;;;;;5013933;28;20033;-32
2022/01/11 16:00:46;;;;;;;14.68;8.95;;;5.60;82.50;;;;;;5014264;28;20108;-30
2022/01/11 16:03:12;;;;;;;15.93;9.93;;;5.50;82.50;;;;;;5013971;28;20040;-30
2022/01/11 16:05:38;;;;;;;16.38;9.55;;;5.50;82.50;;;;;;5029096;28;20026;-29
2022/01/11 16:08:06;;;;;;;17.63;9.63;;;5.50;83.20;;;;;;5013841;28;20041;-29
2022/01/11 16:10:31;;;;;;;15.68;9.25;;;5.50;82.60;;;;;;5012279;28;20033;-31
2022/01/11 16:12:57;;;;;;;14.27;9.35;;;5.50;82.60;;;;;;5029029;28;20030;-30
2022/01/11 16:15:22;;;;;;;16.52;9.95;;;5.50;82.70;;;;;;5012521;28;20521;-30
2022/01/11 16:17:48;;;;;;;16.80;9.90;;;5.50;82.70;;;;;;5013631;28;20034;-29
2022/01/11 16:20:14;;;;;;;15.40;9.30;;;5.40;82.70;;;;;;5013680;28;20105;-29
2022/01/11 16:22:39;;;;;;;18.13;9.63;;;5.40;82.80;;;;;;5013643;28;20112;-29
2022/01/11 16:25:05;;;;;;;15.27;9.38;;;5.30;82.80;;;;;;5013603;28;20070;-29
2022/01/11 16:27:31;;;;;;;16.10;9.88;;;5.30;82.90;;;;;;5013423;28;20026;-29
2022/01/11 16:30:13;;;;;;;17.70;10.10;;;5.30;83.10;;;;;;5013404;28;20033;-28
2022/01/11 16:32:39;;;;;;;16.85;9.48;;;5.30;83.10;;;;;;5013217;28;20125;-30
2022/01/11 16:35:05;;;;;;;16.65;10.27;;;5.30;83.20;;;;;;5013444;28;20025;-29
2022/01/11 16:37:30;;;;;;;17.73;10.10;;;5.30;83.30;;;;;;5013353;28;20030;-30
2022/01/11 16:40:07;;;;;;;17.75;10.80;;;5.30;83.30;;;;;;5013425;28;20080;-32
2022/01/11 16:42:38;;;;;;;15.32;9.88;;;5.30;83.30;;;;;;5013473;28;20108;-33
2022/01/11 16:45:08;;;;;;;15.70;10.18;;;5.20;83.30;;;;;;5028374;28;20038;-35
2022/01/11 16:47:34;;;;;;;17.58;10.07;;;5.20;83.40;;;;;;5013211;28;20044;-34
2022/01/11 16:50:02;;;;;;;17.95;10.52;;;5.20;83.40;;;;;;5013011;28;20034;-31
2022/01/11 16:52:28;;;;;;;17.23;10.18;;;5.20;83.50;;;;;;5013140;28;20021;-29
2022/01/11 16:54:53;;;;;;;19.65;10.70;;;5.10;83.40;;;;;;5013050;28;20494;-28
2022/01/11 16:57:20;;;;;;;15.57;10.32;;;5.10;83.50;;;;;;5013043;28;20521;-30
2022/01/11 16:59:45;;;;;;;17.13;9.95;;;5.10;83.60;;;;;;5012293;28;20025;-29
2022/01/11 17:02:11;;;;;;;15.45;10.40;;;5.10;83.70;;;;;;5011704;28;20022;-31
2022/01/11 17:04:37;;;;;;;16.48;10.07;;;5.10;83.70;;;;;;5012995;28;20033;-31
2022/01/11 17:07:03;;;;;;;16.50;9.27;;;5.10;83.70;;;;;;5013096;28;20070;-34
2022/01/11 17:09:30;;;;;;;14.93;9.55;;;5.10;83.70;;;;;;5012876;28;20033;-29
2022/01/11 17:12:00;;;;;;;14.93;9.48;;;5.10;83.70;;;;;;5013155;28;20482;-29